Marek Kucka

Chefscout - DAC Dunajska Streda
3 Dez 2028
Sonntag
Verarbeitung

Persönlichkeit

Anpassungsfähigkeit (12) Ehrgeiz (10) Kontroverse (11) Loyalität (3) Druck (18) Professionalität (4) Fairness (6) Temperament (5)

Profil

Trainerstil Demokratisch
Lizenz Kontinentale A
Entschlossenheit 5
Menschenführung 10
Motivation 10
Disziplin 12
Arbeitszufriedenheit
100%
Ermüdung
0%
Rolle Chefscout
Gehalt 62.6K p/W
Vertrag 14.03.2030

Leistung

Verhalten Gut
Trainingseffektivität
45%
Spielerentwicklung
50%
Verletzungsprävention
25%
Taktische Umsetzung
30%

Letzte Ereignisse

Nahm an einer Scouting-Besprechung teil jetzt
Empfahl ein Transferziel jetzt
Empfahl ein Transferziel jetzt
Empfahl ein Transferziel jetzt
Empfahl ein Transferziel jetzt
Empfahl ein Transferziel jetzt
Spieler begutachtet 7T her
Spieler begutachtet 7T her

Aktuell beobachtet

139
Spieler Verein Status Fähigkeit Vertrauen Beobachtet Zuletzt beobachtet Letzte Stimme
Honest Ahanor Atalanta Aktiv 139 / 149 40% 5 30.11.2028 -
Tiago Rodríguez Central Norte Aktiv 83 / 89 40% 3 30.11.2028 -
Rene Hrvatin Istra 1961 Aktiv 109 / 112 40% 1 30.11.2028 -
Joel Ezra Enyimba Aktiv 89 / 114 40% 3 29.11.2028 -
Ivan Borges Defensores Aktiv 91 / 99 40% 5 29.11.2028 -
Matija Subotić HNK Vukovar 1991 Aktiv 112 / 115 40% 1 29.11.2028 -
Giovanni Leoni Lincoln City Aktiv 140 / 153 40% 6 24.11.2028 -
Mateo Faure BATE Aktiv 97 / 100 40% 3 24.11.2028 -
Máximo Magnoli Ferro Carril Oeste Aktiv 91 / 101 40% 3 24.11.2028 -
Mohammed Habib Sarwari Kariobangi Sharks Aktiv 67 / 74 40% 2 23.11.2028 -
Malte Hallin GIF Sundsvall Aktiv 91 / 93 40% 2 23.11.2028 -
Daniel Banjaqui Benfica Aktiv 123 / 131 40% 1 23.11.2028 -
Alejandro Tapia Central Norte Aktiv 96 / 90 40% 3 22.11.2028 -
Veljko Milosavljević Bournemouth Aktiv 152 / 150 40% 2 22.11.2028 -
Radek Šiler Podbrezova Aktiv 120 / 123 42% 1 / 1m 22.11.2028 -
Trey Nyoni Rotherham United Aktiv 144 / 144 40% 7 20.11.2028 -
Snyder Brunell Seattle Sounders Aktiv 93 / 96 40% 2 20.11.2028 -
Josh King Newcastle United Aktiv 142 / 149 40% 1 20.11.2028 -
Celías Ingenthron Platense Aktiv 128 / 123 40% 4 18.11.2028 -
Felipe Pujol Vélez Aktiv 103 / 120 40% 1 18.11.2028 -
Estanislao López Colón Aktiv 97 / 99 40% 4 16.11.2028 -
Andrija Bulatović Chamois Niortais Aktiv 133 / 132 40% 1 16.11.2028 -
Jan Bürger Northampton Town Aktiv 119 / 129 40% 3 13.11.2028 -
Jan Cedilnik Chikhura Aktiv 91 / 86 40% 3 13.11.2028 -
Harrison Armstrong Ipswich Town Aktiv 133 / 147 40% 2 13.11.2028 -
Tyler Fletcher Rotherham United Aktiv 111 / 125 40% 5 09.11.2028 -
Filip Reshane Stabaek Aktiv 113 / 101 40% 1 09.11.2028 -
Gideon Manaseh Ikorodu City Aktiv 103 / 100 40% 3 03.11.2028 -
Tiago Gordillo San Miguel Aktiv 79 / 87 40% 5 02.11.2028 -
Felipe Varela Trujillanos Aktiv 102 / 91 40% 3 02.11.2028 -
Johan Solstad-Nøis Tromso Aktiv 95 / 105 40% 3 01.11.2028 -
Máximo Munarriz San Telmo Aktiv 92 / 115 40% 3 29.10.2028 -
Lucas Nicol Mjondalen Aktiv 85 / 95 40% 1 28.10.2028 -
Francisco Machis Llaneros Aktiv 91 / 88 40% 4 26.10.2028 -
Matías Magdaleno Estudiantes Aktiv 115 / 127 40% 1 25.10.2028 -
Salvador Blopá Wolverhampton Aktiv 130 / 128 40% 1 25.10.2028 -
Noah Markmann Esbjerg Aktiv 119 / 124 40% 1 24.10.2028 -
Diego León Rotherham United Aktiv 131 / 124 40% 3 20.10.2028 -
Alexandr Derzhinskiy Slavia Mozyr Aktiv 94 / 101 40% 1 19.10.2028 -
Óscar Hinojosa Metropolitanos Aktiv 72 / 86 40% 1 18.10.2028 -
Luciano Posadas Central Córdoba SdE Aktiv 103 / 91 40% 2 17.10.2028 -
Noa Mikić Imotski Aktiv 111 / 128 40% 1 17.10.2028 -
Benito Paklayan Alvarado Aktiv 84 / 102 40% 1 16.10.2028 -
Tyson Pearce St. Louis CITY SC Aktiv 98 / 99 40% 1 14.10.2028 -
Mauro Matorras Central Norte Aktiv 107 / 100 40% 1 13.10.2028 -
Agustín Medina Lanús Aktiv 128 / 114 40% 1 13.10.2028 -
Samuel Molano Patriotas Aktiv 89 / 94 40% 1 12.10.2028 -
Ayyoub Bouaddi Stoke City Aktiv 153 / 152 40% 1 10.10.2028 -
Aytor Herrera Mineros de Guayana Aktiv 100 / 87 40% 1 05.10.2028 -
Tobías Ramírez River Plate Aktiv 117 / 131 40% 1 04.10.2028 -
Mateo Caballero Defensor Sporting Aktiv 105 / 97 40% 1 02.10.2028 -
Federico Matarán Giana Erminio Aktiv 101 / 114 40% 1 07.08.2028 -
Kwesi Sorotu Badori Berekum Chelsea Aktiv 86 / 117 40% 1 07.08.2028 -
Ahmed Zaki Masr El Makasa Aktiv 95 / 91 40% 1 07.08.2028 -
Riquelme Thompson-Jones Accrington Stanley Aktiv 108 / 118 40% 2 12.06.2028 -
Josh Nichols Oldham Athletic Aktiv 130 / 134 40% 2 12.06.2028 -
Luka Silagadze Podbrezova Aktiv 120 / 110 62% 1 07.06.2028 Befürworten
Jakub Suslov FK Senica Verhandlung 111 / 116 62% 1 01.06.2028 Befürworten
Andrea Cogoni Cosenza Aktiv 103 / 119 40% 3 31.05.2028 -
Martim Cunha Porto Aktiv 104 / 109 40% 8 30.05.2028 -
Artem Nosachev Spartak Moscow Aktiv 77 / 89 40% 2 29.05.2028 -
Olivier Leroux Mouscron Aktiv 103 / 103 40% 1 28.05.2028 -
Jorthy Mokio ADO Den Haag Aktiv 125 / 139 40% 4 25.05.2028 -
Thijs Kraaijeveld USM Alger Aktiv 108 / 126 40% 1 21.05.2028 -
Kiani Inge Groningen Aktiv 115 / 118 40% 4 18.05.2028 -
Simone Suppa Virtus Verona Aktiv 93 / 89 40% 1 17.05.2028 -
Dmytro Strilchuk Podillia Aktiv 97 / 88 40% 2 15.05.2028 -
Abubakar Adams Aduana Stars Aktiv 72 / 101 40% 2 15.05.2028 -
Miguel Figueiredo Benfica Aktiv 118 / 132 40% 3 11.05.2028 -
Celías Ingenthron Platense Verloren 130 / 133 40% 1 10.05.2028 -
Nicolò Moranduzzo Renate Aktiv 85 / 95 40% 1 08.05.2028 -
Musa Danjuma Umraniyespor Aktiv 109 / 103 40% 1 22.04.2028 -
Kamaldeen Atiemo Wa All Stars Aktiv 98 / 96 40% 1 17.04.2028 -
Bernardo Lima Porto Aktiv 112 / 119 40% 1 12.04.2028 -
Matvey Bardachev Zenit Aktiv 99 / 119 40% 1 10.04.2028 -
Andrey Ivlev Nizhniy Novgorod Aktiv 121 / 115 40% 1 07.03.2028 -
Nazareno Roselli Defensa y Justicia Aktiv 112 / 127 40% 1 26.01.2028 -
Lamin Sillah Exeter City Aktiv 106 / 106 40% 1 04.01.2028 -
Ilja Zhbanov Cobresal Aktiv 90 / 94 66% 1 01.01.2028 Befürworten
Abdullahi Mohammad Kwara United Aktiv 76 / 82 40% 1 01.01.2028 -
Brian Farioli Estudiantes Aktiv 106 / 114 40% 2 14.12.2027 -
José Barreto Quilmes Aktiv 111 / 107 40% 1 14.12.2027 -
Marcio Gómez Racing Aktiv 109 / 111 40% 2 13.12.2027 -
Matías Bazzi Talleres Aktiv 113 / 108 40% 3 11.12.2027 -
Pedro Souto Temperley Aktiv 102 / 122 40% 1 11.12.2027 -
Gabriel Díaz Patronato Verloren 124 / 114 40% 6 10.12.2027 -
Gianluca Pugliese Güemes Aktiv 98 / 111 40% 2 06.12.2027 -
Valentín Serrano Arsenal Aktiv 99 / 108 40% 1 06.12.2027 -
Gastón Togni Defensa y Justicia Aktiv 124 / 117 40% 2 04.12.2027 -
Rodrigo González Mitre Aktiv 134 / 110 40% 1 04.12.2027 -
Franco Vedoya Central Norte Aktiv 102 / 109 40% 2 02.12.2027 -
Nino Marcelli Slovan Bratislava Aktiv 132 / 122 40% 3 30.11.2027 -
Alejo Dramisino Atlanta Aktiv 122 / 127 40% 1 28.11.2027 -
Federico Versaci Talleres Aktiv 128 / 116 40% 1 26.11.2027 -
Adalberto Peñaranda Deportivo Tachira Aktiv 105 / 110 40% 1 26.11.2027 -
Nicolás Retamar Ferro Carril Oeste Aktiv 135 / 119 40% 1 25.11.2027 -
Oscar Garrido Mitre Aktiv 112 / 107 40% 1 25.11.2027 -
Alejo Tabares All Boys Aktiv 116 / 106 40% 1 25.11.2027 -
Tiago Ferreyra Mitre Aktiv 100 / 114 40% 1 25.11.2027 -
Francisco Facello Chacarita Juniors Aktiv 113 / 123 40% 2 23.11.2027 -
Alex Luna Instituto Aktiv 120 / 141 40% 1 23.11.2027 -
Nicolás Fernández Maipú Aktiv 118 / 111 40% 1 22.11.2027 -
Jefry Zapata Aldosivi Aktiv 111 / 122 40% 1 19.11.2027 -
Braian Aranda Agropecuario Argentino Aktiv 98 / 121 40% 2 16.11.2027 -
Tomás Ferreyra Defensores Unidos Aktiv 104 / 112 40% 1 11.11.2027 -
Misael Tarón Ferro Carril Oeste Aktiv 117 / 101 40% 2 10.11.2027 -
Ismael Cortez Gimnasia y Esgrima Aktiv 103 / 114 40% 1 09.11.2027 -
Delvin Alfonzo Deportivo Tachira Aktiv 130 / 110 40% 1 09.11.2027 -
Tomás Porra Barracas Central Aktiv 109 / 129 40% 1 05.11.2027 -
Leandro Lucero Temperley Aktiv 108 / 117 40% 1 03.11.2027 -
Camilo Alessandria Godoy Cruz Aktiv 117 / 111 40% 1 02.11.2027 -
Abraham Bahachille Carabobo Aktiv 107 / 104 40% 1 05.10.2027 -
Bruno Leyes Godoy Cruz Aktiv 123 / 136 40% 1 05.10.2027 -
Tomás Castro Ponce Atlanta Aktiv 109 / 116 40% 1 04.10.2027 -
Franco Camargo Gimnasia y Esgrima Aktiv 127 / 98 40% 1 14.09.2027 -
Fernando Savarino Llaneros Aktiv 117 / 104 40% 1 12.09.2027 -
Kabiru Abdullahi Barau Aktiv 88 / 98 40% 1 19.08.2027 -
Luighi Palmeiras Aktiv 99 / 120 40% 1 18.08.2027 -
Godbless Ayeke AS Bakaridjan Aktiv 70 / 73 40% 1 18.08.2027 -
Bosun Lawal Stoke City Aktiv 134 / 133 40% 1 09.08.2027 -
Kristoffer Lund Birmingham Aktiv 135 / 134 40% 1 09.08.2027 -
Ben Ahmed Kohili Paradou Aktiv 114 / 109 40% 1 21.06.2027 -
Matej Poplatnik Aktiv 113 / 113 66% 1 01.06.2027 Befürworten
Luciano Gondou Chelsea Aktiv 127 / 128 67% 1 01.06.2027 Befürworten
Maicon Levski Aktiv 127 / 120 40% 1 31.12.2026 -
Maks Ebong CSKA Sofia Aktiv 112 / 115 40% 1 28.12.2026 -
Aleksa Janković Sumgayit Aktiv 111 / 122 40% 1 28.12.2026 -
Thomas Carrique Andorra Aktiv 122 / 120 40% 2 27.12.2026 -
Tyrhys Dolan Espanyol Aktiv 129 / 135 40% 1 26.12.2026 -
Peter Kováčik Podbrezova Aktiv 120 / 103 40% 1 16.12.2026 -
Oguzhan Omur Khazar Aktiv 103 / 116 40% 1 15.12.2026 -
Rivaldo Mkhize Black Aces Aktiv 71 / 76 40% 1 14.12.2026 -
Lebogang Manyama SuperSport United Aktiv 94 / 100 40% 1 12.12.2026 -
David Ozoh Derby County Aktiv 114 / 123 40% 1 12.12.2026 -
Louis Leroux FC Nantes Aktiv 122 / 134 40% 1 10.12.2026 -
Roman Dixon Walsall Aktiv 100 / 110 40% 1 05.11.2026 -
Maeson King Hull City Aktiv 107 / 117 40% 1 07.09.2026 -
Tobías Ganduglia Independiente Rivadavia Aktiv 75 / 83 40% 1 24.08.2026 -
Giorgio Costantini River Plate Aktiv 97 / 102 40% 1 18.08.2026 -